VXO weather

Public forecast

Using degrees Celsius for public forecast. Weather courtesy of forecast.io.

Current aviation weather report (METAR) for Växjö Kronoberg Airport

Retrieved 2020/08/13 23:20 UTC (10 minutes ago):

ESMX 132320Z AUTO 21002KT 9999 NCD 15/14 Q1017

Aviation forecast (TAF) for Växjö Kronoberg Airport

Forecast is more than 12 hours old.

Retrieved 2019/06/26 16:36 UTC (1 year ago):

TAF TAF ESMX 261530Z 2616/2724 30009KT 9999 SCT040TCU